createdAt,value
2018-12-24T00:00:35.230Z,36.3
2018-12-24T00:01:35.147Z,36.3
2018-12-24T00:02:35.077Z,33.3
2018-12-24T00:03:35.114Z,36.3
2018-12-24T00:04:35.125Z,30.3
2018-12-24T00:05:35.173Z,30.3
2018-12-24T00:06:35.172Z,36.3
2018-12-24T00:07:35.174Z,36.3
2018-12-24T00:08:35.166Z,30.3
2018-12-24T00:09:35.193Z,30.3
2018-12-24T00:10:35.133Z,30.3
2018-12-24T00:11:35.144Z,30.3
2018-12-24T00:12:35.142Z,33.3
2018-12-24T00:13:35.078Z,33.3
2018-12-24T00:14:35.316Z,33.3
2018-12-24T00:15:35.130Z,21.3
2018-12-24T00:16:35.121Z,27.3
2018-12-24T00:17:35.167Z,24.3
2018-12-24T00:18:35.066Z,27.3
2018-12-24T00:19:36.539Z,24.3
2018-12-24T00:20:35.070Z,30.3
2018-12-24T00:21:35.198Z,24.3
2018-12-24T00:22:35.202Z,30.3
2018-12-24T00:23:35.160Z,27.3
2018-12-24T00:24:35.085Z,30.3
2018-12-24T00:25:35.160Z,33.3
2018-12-24T00:26:35.108Z,30.3
2018-12-24T00:27:35.191Z,33.3
2018-12-24T00:28:35.109Z,33.3
2018-12-24T00:29:35.082Z,30.3
2018-12-24T00:30:35.156Z,27.3
2018-12-24T00:31:35.211Z,27.3
2018-12-24T00:32:35.126Z,27.3
2018-12-24T00:33:35.091Z,30.3
2018-12-24T00:34:35.107Z,33.3
2018-12-24T00:35:35.171Z,30.3
2018-12-24T00:36:35.135Z,27.3
2018-12-24T00:37:35.113Z,27.3
2018-12-24T00:38:35.212Z,21.3
2018-12-24T00:39:35.131Z,27.3
2018-12-24T00:40:35.081Z,21.3
2018-12-24T00:41:35.208Z,21.3
2018-12-24T00:42:35.112Z,24.3
2018-12-24T00:43:35.140Z,27.3
2018-12-24T00:44:35.112Z,27.3
2018-12-24T00:45:35.071Z,24.3
2018-12-24T00:46:35.210Z,24.3
2018-12-24T00:47:35.138Z,30.3
2018-12-24T00:48:35.122Z,30.3
2018-12-24T00:49:35.123Z,27.3
2018-12-24T00:50:35.126Z,33.3
2018-12-24T00:51:35.134Z,33.3
2018-12-24T00:52:35.127Z,30.3
2018-12-24T00:53:35.215Z,33.3
2018-12-24T00:54:35.159Z,42.3
2018-12-24T00:55:35.210Z,36.3
2018-12-24T00:56:35.092Z,36.3
2018-12-24T00:57:35.139Z,30.3
2018-12-24T00:58:35.110Z,30.3
2018-12-24T00:59:35.118Z,30.3
2018-12-24T01:00:35.183Z,30.3
2018-12-24T01:01:35.117Z,36.3
2018-12-24T01:02:35.081Z,30.3
2018-12-24T01:03:35.126Z,27.3
2018-12-24T01:04:35.174Z,24.3
2018-12-24T01:05:35.242Z,30.3
2018-12-24T01:06:35.092Z,27.3
2018-12-24T01:07:35.064Z,30.3
2018-12-24T01:08:35.084Z,27.3
2018-12-24T01:09:35.200Z,27.3
2018-12-24T01:10:35.103Z,24.3
2018-12-24T01:11:35.117Z,27.3
2018-12-24T01:12:35.102Z,24.3
2018-12-24T01:13:35.080Z,24.3
2018-12-24T01:14:35.151Z,24.3
2018-12-24T01:15:35.165Z,21.3
2018-12-24T01:16:35.145Z,24.3
2018-12-24T01:17:35.103Z,21.3
2018-12-24T01:18:35.049Z,24.3
2018-12-24T01:19:35.087Z,21.3
2018-12-24T01:20:36.367Z,27.3
2018-12-24T01:21:35.122Z,24.3
2018-12-24T01:22:35.102Z,24.3
2018-12-24T01:23:35.136Z,27.3
2018-12-24T01:24:35.133Z,30.3
2018-12-24T01:25:35.102Z,33.3
2018-12-24T01:26:35.104Z,36.3
2018-12-24T01:27:35.110Z,30.3
2018-12-24T01:28:35.107Z,33.3
2018-12-24T01:29:35.134Z,33.3
2018-12-24T01:30:35.115Z,36.3
2018-12-24T01:31:35.099Z,27.3
2018-12-24T01:32:35.115Z,33.3
2018-12-24T01:33:35.104Z,33.3
2018-12-24T01:34:35.125Z,30.3
2018-12-24T01:35:35.051Z,30.3
2018-12-24T01:36:35.089Z,30.3
2018-12-24T01:37:35.181Z,27.3
2018-12-24T01:38:35.104Z,36.3
2018-12-24T01:39:35.109Z,33.3
2018-12-24T01:40:35.044Z,39.3
2018-12-24T01:41:35.158Z,33.3
2018-12-24T01:42:35.942Z,30.3
2018-12-24T01:43:35.078Z,30.3
2018-12-24T01:44:35.091Z,36.3
2018-12-24T01:45:35.048Z,42.3
2018-12-24T01:46:35.149Z,39.3
2018-12-24T01:47:35.087Z,42.3
2018-12-24T01:48:35.074Z,36.3
2018-12-24T01:49:35.077Z,27.3
2018-12-24T01:50:35.084Z,33.3
2018-12-24T01:51:35.148Z,30.3
2018-12-24T01:52:35.084Z,36.3
2018-12-24T01:53:35.083Z,30.3
2018-12-24T01:54:35.083Z,36.3
2018-12-24T01:55:35.138Z,36.3
2018-12-24T01:56:35.092Z,36.3
2018-12-24T01:57:35.191Z,30.3
2018-12-24T01:58:35.062Z,42.3
2018-12-24T01:59:35.137Z,54.3
2018-12-24T02:00:35.096Z,45.3
2018-12-24T02:01:35.091Z,39.3
2018-12-24T02:02:35.245Z,39.3
2018-12-24T02:03:35.071Z,42.3
2018-12-24T02:04:35.168Z,39.3
2018-12-24T02:05:35.099Z,33.3
2018-12-24T02:06:35.161Z,42.3
2018-12-24T02:07:35.045Z,45.3
2018-12-24T02:08:35.131Z,36.3
2018-12-24T02:09:35.150Z,42.3
2018-12-24T02:10:35.075Z,36.3
2018-12-24T02:11:35.086Z,36.3
2018-12-24T02:12:43.374Z,39.3
2018-12-24T02:13:35.036Z,36.3
2018-12-24T02:14:35.173Z,30.3
2018-12-24T02:15:35.077Z,33.3
2018-12-24T02:16:35.082Z,39.3
2018-12-24T02:17:35.067Z,30.3
2018-12-24T02:18:35.027Z,30.3
2018-12-24T02:19:35.158Z,27.3
2018-12-24T02:20:35.072Z,24.3
2018-12-24T02:21:35.070Z,36.3
2018-12-24T02:22:35.072Z,30.3
2018-12-24T02:23:35.024Z,24.3
2018-12-24T02:24:35.069Z,21.3
2018-12-24T02:25:35.058Z,24.3
2018-12-24T02:26:35.105Z,27.3
2018-12-24T02:27:35.084Z,30.3
2018-12-24T02:28:35.043Z,51.3
2018-12-24T02:29:35.095Z,24.3
2018-12-24T02:30:35.114Z,36.3
2018-12-24T02:31:35.147Z,39.3
2018-12-24T02:32:35.051Z,48.3
2018-12-24T02:33:35.321Z,39.3
2018-12-24T02:34:35.042Z,39.3
2018-12-24T02:35:35.025Z,57.3
2018-12-24T02:36:35.053Z,36.3
2018-12-24T02:37:35.125Z,48.3
2018-12-24T02:38:35.128Z,57.3
2018-12-24T02:39:35.057Z,54.3
2018-12-24T02:40:35.013Z,39.3
2018-12-24T02:41:35.046Z,51.3
2018-12-24T02:42:35.132Z,39.3
2018-12-24T02:43:35.066Z,45.3
2018-12-24T02:44:35.051Z,51.3
2018-12-24T02:45:35.019Z,51.3
2018-12-24T02:46:35.065Z,48.3
2018-12-24T02:47:35.258Z,45.3
2018-12-24T02:48:35.135Z,60.3
2018-12-24T02:49:35.240Z,54.3
2018-12-24T02:50:35.082Z,51.3
2018-12-24T02:51:35.078Z,45.3
2018-12-24T02:52:35.052Z,48.3
2018-12-24T02:53:35.048Z,51.3
2018-12-24T02:54:35.109Z,57.3
2018-12-24T02:55:35.056Z,51.3
2018-12-24T02:56:35.067Z,48.3
2018-12-24T02:57:35.070Z,48.3
2018-12-24T02:58:35.029Z,54.3
2018-12-24T02:59:35.055Z,51.3
2018-12-24T03:00:35.061Z,45.3
2018-12-24T03:01:35.107Z,48.3
2018-12-24T03:02:35.016Z,54.3
2018-12-24T03:03:35.068Z,36.3
2018-12-24T03:04:35.086Z,54.3
2018-12-24T03:05:35.034Z,54.3
2018-12-24T03:06:35.019Z,51.3
2018-12-24T03:07:35.077Z,42.3
2018-12-24T03:08:35.022Z,33.3
2018-12-24T03:09:35.036Z,45.3
2018-12-24T03:10:35.019Z,39.3
2018-12-24T03:11:35.033Z,60.3
2018-12-24T03:12:35.075Z,45.3
2018-12-24T03:13:34.974Z,45.3
2018-12-24T03:14:35.028Z,60.3
2018-12-24T03:15:35.044Z,45.3
2018-12-24T03:16:35.093Z,42.3
2018-12-24T03:17:35.069Z,42.3
2018-12-24T03:18:35.010Z,54.3
2018-12-24T03:19:35.045Z,57.3
2018-12-24T03:20:35.020Z,60.3
2018-12-24T03:21:35.027Z,54.3
2018-12-24T03:22:35.100Z,57.3
2018-12-24T03:23:35.098Z,51.3
2018-12-24T03:24:34.970Z,36.3
2018-12-24T03:25:35.060Z,48.3
2018-12-24T03:26:35.073Z,51.3
2018-12-24T03:27:35.101Z,60.3
2018-12-24T03:28:35.047Z,39.3
2018-12-24T03:29:34.974Z,42.3
2018-12-24T03:30:35.119Z,51.3
2018-12-24T03:31:35.105Z,42.3
2018-12-24T03:32:35.077Z,45.3
2018-12-24T03:33:35.110Z,48.3
2018-12-24T03:34:35.000Z,48.3
2018-12-24T03:35:35.025Z,51.3
2018-12-24T03:36:35.030Z,51.3
2018-12-24T03:37:35.100Z,54.3
2018-12-24T03:38:35.020Z,51.3
2018-12-24T03:39:35.094Z,54.3
2018-12-24T03:40:34.983Z,51.3
2018-12-24T03:41:35.042Z,60.3
2018-12-24T03:42:35.037Z,42.3
2018-12-24T03:43:35.011Z,57.3
2018-12-24T03:44:35.077Z,57.3
2018-12-24T03:45:35.183Z,54.3
2018-12-24T03:46:35.022Z,51.3
2018-12-24T03:47:35.009Z,42.3
2018-12-24T03:48:35.031Z,51.3
2018-12-24T03:49:35.009Z,51.3
2018-12-24T03:50:35.036Z,60.3
2018-12-24T03:51:34.979Z,60.3
2018-12-24T03:52:35.031Z,60.3
2018-12-24T03:53:35.018Z,63.4
2018-12-24T03:54:35.078Z,51.3
2018-12-24T03:55:35.021Z,51.3
2018-12-24T03:56:34.976Z,48.3
2018-12-24T03:57:34.995Z,54.3
2018-12-24T03:58:35.010Z,63.4
2018-12-24T03:59:35.074Z,60.3
2018-12-24T04:00:35.020Z,48.3
2018-12-24T04:01:35.043Z,51.3
2018-12-24T04:02:34.967Z,51.3
2018-12-24T04:03:35.014Z,60.3
2018-12-24T04:04:35.076Z,51.3
2018-12-24T04:05:35.030Z,54.3
2018-12-24T04:06:35.016Z,51.3
2018-12-24T04:07:34.968Z,45.3
2018-12-24T04:08:35.080Z,48.3
2018-12-24T04:09:35.080Z,60.3
2018-12-24T04:10:35.061Z,69.4
2018-12-24T04:11:35.005Z,54.3
2018-12-24T04:12:34.948Z,45.3
2018-12-24T04:13:35.017Z,57.3
2018-12-24T04:14:35.193Z,63.4
2018-12-24T04:15:34.997Z,48.3
2018-12-24T04:16:35.166Z,51.3
2018-12-24T04:17:35.150Z,45.3
2018-12-24T04:18:34.985Z,54.3
2018-12-24T04:19:34.996Z,45.3
2018-12-24T04:20:35.060Z,60.3
2018-12-24T04:21:34.999Z,54.3
2018-12-24T04:22:35.083Z,60.3
2018-12-24T04:23:34.979Z,60.3
2018-12-24T04:24:35.000Z,51.3
2018-12-24T04:25:35.052Z,42.3
2018-12-24T04:26:35.003Z,45.3
2018-12-24T04:27:44.068Z,42.3
2018-12-24T04:28:35.067Z,42.3
2018-12-24T04:29:35.040Z,45.3
2018-12-24T04:30:35.001Z,48.3
2018-12-24T04:31:34.973Z,51.3
2018-12-24T04:32:34.993Z,39.3
2018-12-24T04:33:35.077Z,39.3
2018-12-24T04:34:35.059Z,42.3
2018-12-24T04:35:34.993Z,39.3
2018-12-24T04:36:35.062Z,39.3
2018-12-24T04:37:35.015Z,51.3
2018-12-24T04:38:35.106Z,51.3
2018-12-24T04:39:34.988Z,48.3
2018-12-24T04:40:35.019Z,42.3
2018-12-24T04:41:34.988Z,45.3
2018-12-24T04:42:34.991Z,66.4
2018-12-24T04:43:35.042Z,54.3
2018-12-24T04:44:35.034Z,57.3
2018-12-24T04:45:34.954Z,39.3
2018-12-24T04:46:35.007Z,45.3
2018-12-24T04:47:35.032Z,48.3
2018-12-24T04:48:35.003Z,54.3
2018-12-24T04:49:34.994Z,45.3
2018-12-24T04:50:35.042Z,42.3
2018-12-24T04:51:34.946Z,45.3
2018-12-24T04:52:34.984Z,48.3
2018-12-24T04:53:35.092Z,39.3
2018-12-24T04:54:34.994Z,42.3
2018-12-24T04:55:35.079Z,45.3
2018-12-24T04:56:34.927Z,57.3
2018-12-24T04:57:35.018Z,54.3
2018-12-24T04:58:34.978Z,60.3
2018-12-24T04:59:35.056Z,45.3
2018-12-24T05:00:34.982Z,48.3
2018-12-24T05:01:35.054Z,45.3
2018-12-24T05:02:34.930Z,39.3
2018-12-24T05:03:34.983Z,45.3
2018-12-24T05:04:35.045Z,54.3
2018-12-24T05:05:34.964Z,45.3
2018-12-24T05:06:35.085Z,36.3
2018-12-24T05:07:34.941Z,39.3
2018-12-24T05:08:34.983Z,57.3
2018-12-24T05:09:34.967Z,36.3
2018-12-24T05:10:34.957Z,36.3
2018-12-24T05:11:35.020Z,48.3
2018-12-24T05:12:35.088Z,45.3
2018-12-24T05:13:43.131Z,48.3
2018-12-24T05:14:34.971Z,42.3
2018-12-24T05:15:34.956Z,42.3
2018-12-24T05:16:35.037Z,36.3
2018-12-24T05:17:34.979Z,39.3
2018-12-24T05:18:34.936Z,45.3
2018-12-24T05:19:34.942Z,39.3
2018-12-24T05:20:35.039Z,36.3
2018-12-24T05:21:35.044Z,45.3
2018-12-24T05:22:34.949Z,39.3
2018-12-24T05:23:34.930Z,36.3
2018-12-24T05:24:35.026Z,33.3
2018-12-24T05:25:35.055Z,51.3
2018-12-24T05:26:35.005Z,39.3
2018-12-24T05:27:34.974Z,39.3
2018-12-24T05:28:34.957Z,36.3
2018-12-24T05:29:34.915Z,39.3
2018-12-24T05:30:35.030Z,48.3
2018-12-24T05:31:34.964Z,33.3
2018-12-24T05:32:34.972Z,42.3
2018-12-24T05:33:35.152Z,42.3
2018-12-24T05:34:34.938Z,42.3
2018-12-24T05:35:34.986Z,36.3
2018-12-24T05:36:34.963Z,42.3
2018-12-24T05:37:34.953Z,42.3
2018-12-24T05:38:34.963Z,42.3
2018-12-24T05:39:34.944Z,39.3
2018-12-24T05:40:34.984Z,42.3
2018-12-24T05:41:34.980Z,42.3
2018-12-24T05:42:34.969Z,42.3
2018-12-24T05:43:35.022Z,45.3
2018-12-24T05:44:34.977Z,48.3
2018-12-24T05:45:34.902Z,39.3
2018-12-24T05:46:34.952Z,45.3
2018-12-24T05:47:34.945Z,45.3
2018-12-24T05:48:35.044Z,30.3
2018-12-24T05:49:34.956Z,36.3
2018-12-24T05:50:35.078Z,33.3
2018-12-24T05:51:34.887Z,39.3
2018-12-24T05:52:34.962Z,51.3
2018-12-24T05:53:35.013Z,42.3
2018-12-24T05:54:34.952Z,42.3
2018-12-24T05:55:34.958Z,36.3
2018-12-24T05:56:34.908Z,48.3
2018-12-24T05:57:34.980Z,42.3
2018-12-24T05:58:35.010Z,30.3
2018-12-24T05:59:35.013Z,39.3
2018-12-24T06:00:34.941Z,42.3
2018-12-24T06:01:34.907Z,42.3
2018-12-24T06:02:34.906Z,39.3
2018-12-24T06:03:34.956Z,36.3
2018-12-24T06:04:34.999Z,27.3
2018-12-24T06:05:34.949Z,36.3
2018-12-24T06:06:34.940Z,51.3
2018-12-24T06:07:34.914Z,48.3
2018-12-24T06:08:34.927Z,39.3
2018-12-24T06:09:35.015Z,36.3
2018-12-24T06:10:35.127Z,39.3
2018-12-24T06:11:34.937Z,42.3
2018-12-24T06:12:34.891Z,51.3
2018-12-24T06:13:35.016Z,39.3
2018-12-24T06:14:34.941Z,42.3
2018-12-24T06:15:34.984Z,45.3
2018-12-24T06:16:34.929Z,33.3
2018-12-24T06:17:34.973Z,42.3
2018-12-24T06:18:34.971Z,51.3
2018-12-24T06:19:35.137Z,36.3
2018-12-24T06:20:40.011Z,42.3
2018-12-24T06:21:34.945Z,54.3
2018-12-24T06:22:34.932Z,39.3
2018-12-24T06:23:34.988Z,48.3
2018-12-24T06:24:34.880Z,51.3
2018-12-24T06:25:34.970Z,48.3
2018-12-24T06:26:35.007Z,36.3
2018-12-24T06:27:34.924Z,45.3
2018-12-24T06:28:34.942Z,45.3
2018-12-24T06:29:34.921Z,51.3
2018-12-24T06:30:35.055Z,45.3
2018-12-24T06:31:37.049Z,60.3
2018-12-24T06:32:34.919Z,45.3
2018-12-24T06:33:34.926Z,48.3
2018-12-24T06:34:34.984Z,42.3
2018-12-24T06:35:34.887Z,54.3
2018-12-24T06:36:34.943Z,54.3
2018-12-24T06:37:34.947Z,60.3
2018-12-24T06:38:34.943Z,51.3
2018-12-24T06:39:35.020Z,48.3
2018-12-24T06:40:34.881Z,51.3
2018-12-24T06:41:34.919Z,42.3
2018-12-24T06:42:34.924Z,45.3
2018-12-24T06:43:34.952Z,54.3
2018-12-24T06:44:35.002Z,51.3
2018-12-24T06:45:34.882Z,42.3
2018-12-24T06:46:34.928Z,54.3
2018-12-24T06:47:34.924Z,45.3
2018-12-24T06:48:34.934Z,42.3
2018-12-24T06:49:34.972Z,45.3
2018-12-24T06:50:34.995Z,42.3
2018-12-24T06:51:34.871Z,48.3
2018-12-24T06:52:34.915Z,48.3
2018-12-24T06:53:34.907Z,33.3
2018-12-24T06:54:34.957Z,45.3
2018-12-24T06:55:35.054Z,39.3
2018-12-24T06:56:34.884Z,39.3
2018-12-24T06:57:34.928Z,39.3
2018-12-24T06:58:34.924Z,39.3
2018-12-24T06:59:34.949Z,39.3
2018-12-24T07:00:34.920Z,30.3
2018-12-24T07:01:34.867Z,39.3
2018-12-24T07:02:34.957Z,39.3
2018-12-24T07:03:34.993Z,39.3
2018-12-24T07:04:34.890Z,42.3
2018-12-24T07:05:34.926Z,36.3
2018-12-24T07:06:34.901Z,36.3
2018-12-24T07:07:34.932Z,33.3
2018-12-24T07:08:34.961Z,30.3
2018-12-24T07:09:34.924Z,30.3
2018-12-24T07:10:34.897Z,27.3
2018-12-24T07:11:34.905Z,33.3
2018-12-24T07:12:34.941Z,30.3
2018-12-24T07:13:34.881Z,27.3
2018-12-24T07:14:34.970Z,33.3
2018-12-24T07:15:34.879Z,33.3
2018-12-24T07:16:34.947Z,30.3
2018-12-24T07:17:34.908Z,24.3
2018-12-24T07:18:35.046Z,27.3
2018-12-24T07:19:34.916Z,24.3
2018-12-24T07:20:44.794Z,21.3
2018-12-24T07:21:34.911Z,18.3
2018-12-24T07:22:34.932Z,15.4
2018-12-24T07:23:34.921Z,21.3
2018-12-24T07:24:34.849Z,27.3
2018-12-24T07:25:35.039Z,24.3
2018-12-24T07:26:34.924Z,27.3
2018-12-24T07:27:34.940Z,27.3
2018-12-24T07:28:34.903Z,24.3
2018-12-24T07:29:34.842Z,21.3
2018-12-24T07:30:34.969Z,18.3
2018-12-24T07:31:34.891Z,21.3
2018-12-24T07:32:34.891Z,18.3
2018-12-24T07:33:35.003Z,18.3
2018-12-24T07:34:35.231Z,21.3
2018-12-24T07:35:34.895Z,24.3
2018-12-24T07:36:34.879Z,21.3
2018-12-24T07:37:34.858Z,18.3
2018-12-24T07:38:34.911Z,24.3
2018-12-24T07:39:34.977Z,15.4
2018-12-24T07:40:35.229Z,18.3
2018-12-24T07:41:34.928Z,21.3
2018-12-24T07:42:37.073Z,21.3
2018-12-24T07:43:34.928Z,18.3
2018-12-24T07:44:34.909Z,21.3
2018-12-24T07:45:34.855Z,18.3
2018-12-24T07:46:34.916Z,18.3
2018-12-24T07:47:34.953Z,18.3
2018-12-24T07:48:34.964Z,15.4
2018-12-24T07:49:34.929Z,18.3
2018-12-24T07:50:34.852Z,15.4
2018-12-24T07:51:34.934Z,18.3
2018-12-24T07:52:34.928Z,18.3
2018-12-24T07:53:36.566Z,18.3
2018-12-24T07:54:34.867Z,24.3
2018-12-24T07:55:34.889Z,27.3
2018-12-24T07:56:34.819Z,21.3
2018-12-24T07:57:34.908Z,18.3
2018-12-24T07:58:34.928Z,21.3
2018-12-24T07:59:34.980Z,21.3
2018-12-24T08:00:34.879Z,21.3
2018-12-24T08:01:35.132Z,39.3
2018-12-24T08:02:35.023Z,21.3
2018-12-24T08:03:34.901Z,33.3
2018-12-24T08:04:36.539Z,51.3
2018-12-24T08:06:38.954Z,42.3
2018-12-24T08:08:43.261Z,39.3
2018-12-24T08:09:42.565Z,39.3
2018-12-24T08:10:43.190Z,39.3
2018-12-24T08:11:43.002Z,36.3
2018-12-24T08:12:43.272Z,36.3
2018-12-24T08:13:44.865Z,33.3
2018-12-24T08:14:43.295Z,33.3
2018-12-24T08:15:43.136Z,42.3
2018-12-24T08:16:42.973Z,36.3
2018-12-24T08:17:44.060Z,42.3
2018-12-24T08:18:43.154Z,30.3
2018-12-24T08:19:43.161Z,30.3
2018-12-24T08:20:43.290Z,33.3
2018-12-24T08:21:44.184Z,33.3
2018-12-24T08:22:43.557Z,33.3
2018-12-24T08:23:42.879Z,30.3
2018-12-24T08:24:43.330Z,33.3
2018-12-24T08:25:43.318Z,24.3
2018-12-24T08:26:43.641Z,24.3
2018-12-24T08:27:44.438Z,21.3
2018-12-24T08:28:43.749Z,21.3
2018-12-24T08:29:42.686Z,15.4
2018-12-24T08:30:43.557Z,33.3
2018-12-24T08:31:46.306Z,24.3
2018-12-24T08:32:42.753Z,24.3
2018-12-24T08:33:42.705Z,18.3
2018-12-24T08:34:43.346Z,24.3
2018-12-24T08:35:42.878Z,30.3
2018-12-24T08:36:42.662Z,30.3
2018-12-24T08:37:42.291Z,27.3
2018-12-24T08:38:42.248Z,30.3
2018-12-24T08:39:42.307Z,33.3
2018-12-24T08:40:42.305Z,27.3
2018-12-24T08:41:42.296Z,30.3
2018-12-24T08:42:42.281Z,36.3
2018-12-24T08:43:42.305Z,39.3
2018-12-24T08:44:44.324Z,36.3
2018-12-24T08:45:42.287Z,39.3
2018-12-24T08:46:42.286Z,36.3
2018-12-24T08:47:42.314Z,30.3
2018-12-24T08:48:42.282Z,30.3
2018-12-24T08:49:43.785Z,36.3
2018-12-24T08:50:44.170Z,33.3
2018-12-24T08:51:43.339Z,30.3
2018-12-24T08:52:43.183Z,33.3
2018-12-24T08:53:43.779Z,42.3
2018-12-24T08:54:43.081Z,39.3
2018-12-24T08:55:43.156Z,42.3
2018-12-24T08:56:43.418Z,36.3
2018-12-24T08:57:43.275Z,45.3
2018-12-24T08:58:42.998Z,36.3
2018-12-24T09:00:46.958Z,27.3
2018-12-24T09:01:46.746Z,36.3
2018-12-24T09:02:48.554Z,27.3
2018-12-24T09:03:47.278Z,42.3
2018-12-24T09:04:46.504Z,33.3
2018-12-24T09:05:46.587Z,42.3
2018-12-24T09:06:46.715Z,39.3
2018-12-24T09:07:46.558Z,39.3
2018-12-24T09:08:46.565Z,30.3
2018-12-24T09:09:46.182Z,33.3
2018-12-24T09:10:46.689Z,24.3
2018-12-24T09:11:46.527Z,24.3
2018-12-24T09:12:45.704Z,15.4
2018-12-24T09:13:45.717Z,24.3
2018-12-24T09:14:52.583Z,12.4
2018-12-24T09:15:45.697Z,24.3
2018-12-24T09:16:45.692Z,27.3
2018-12-24T09:17:45.659Z,18.3
2018-12-24T09:18:45.700Z,15.4
2018-12-24T09:19:45.719Z,12.4
2018-12-24T09:20:53.739Z,15.4
2018-12-24T09:21:45.783Z,21.3
2018-12-24T09:22:45.701Z,18.3
2018-12-24T09:23:45.692Z,15.4
2018-12-24T09:24:45.678Z,18.3
2018-12-24T09:25:45.699Z,18.3
2018-12-24T09:26:45.775Z,9.5
2018-12-24T09:27:45.767Z,9.5
2018-12-24T09:28:45.700Z,18.3
2018-12-24T09:29:45.660Z,24.3
2018-12-24T09:30:45.650Z,27.3
2018-12-24T09:31:45.690Z,21.3
2018-12-24T09:32:45.717Z,15.4
2018-12-24T09:33:45.775Z,24.3
2018-12-24T09:34:45.652Z,24.3
2018-12-24T09:35:45.709Z,15.4
2018-12-24T09:36:45.707Z,24.3
2018-12-24T09:37:45.651Z,21.3
2018-12-24T09:38:45.710Z,24.3
2018-12-24T09:39:45.757Z,33.3
2018-12-24T09:40:45.712Z,27.3
2018-12-24T09:41:45.714Z,15.4
2018-12-24T09:42:45.699Z,24.3
2018-12-24T09:43:45.766Z,21.3
2018-12-24T09:44:45.726Z,21.3
2018-12-24T09:45:45.725Z,18.3
2018-12-24T09:46:45.758Z,24.3
2018-12-24T09:47:48.823Z,21.3
2018-12-24T09:48:45.715Z,24.3
2018-12-24T09:49:45.769Z,21.3
2018-12-24T09:50:45.665Z,30.3
2018-12-24T09:51:45.714Z,21.3
2018-12-24T09:52:45.696Z,24.3
2018-12-24T09:53:45.670Z,30.3
2018-12-24T09:54:45.748Z,33.3
2018-12-24T09:55:45.707Z,27.3
2018-12-24T09:56:45.663Z,27.3
2018-12-24T09:57:45.745Z,27.3
2018-12-24T09:58:45.680Z,30.3
2018-12-24T09:59:45.683Z,27.3
2018-12-24T10:00:45.833Z,27.3
2018-12-24T10:01:45.683Z,27.3
2018-12-24T10:02:45.702Z,30.3
2018-12-24T10:03:45.739Z,24.3
2018-12-24T10:04:45.681Z,27.3
2018-12-24T10:05:45.756Z,24.3
2018-12-24T10:06:45.659Z,24.3
2018-12-24T10:07:45.757Z,15.4
2018-12-24T10:08:45.635Z,27.3
2018-12-24T10:09:45.675Z,27.3
2018-12-24T10:10:45.675Z,27.3
2018-12-24T10:11:45.749Z,30.3
2018-12-24T10:12:45.639Z,36.3
2018-12-24T10:13:45.699Z,30.3
2018-12-24T10:14:45.766Z,33.3
2018-12-24T10:15:47.169Z,33.3
2018-12-24T10:16:45.758Z,33.3
2018-12-24T10:17:45.646Z,27.3
2018-12-24T10:18:45.632Z,21.3
2018-12-24T10:19:45.699Z,27.3
2018-12-24T10:20:45.687Z,27.3
2018-12-24T10:21:45.798Z,18.3
2018-12-24T10:22:45.699Z,24.3
2018-12-24T10:23:45.717Z,24.3
2018-12-24T10:24:45.674Z,21.3
2018-12-24T10:25:45.675Z,15.4
2018-12-24T10:26:45.767Z,21.3
2018-12-24T10:27:45.704Z,21.3
2018-12-24T10:28:45.717Z,27.3
2018-12-24T10:29:45.629Z,18.3
2018-12-24T10:30:45.664Z,18.3
2018-12-24T10:31:45.662Z,21.3
2018-12-24T10:32:45.754Z,21.3
2018-12-24T10:33:45.679Z,18.3
2018-12-24T10:34:45.686Z,15.4
2018-12-24T10:35:45.747Z,18.3
2018-12-24T10:36:45.821Z,15.4
2018-12-24T10:37:45.705Z,21.3
2018-12-24T10:38:45.702Z,18.3
2018-12-24T10:39:45.709Z,21.3
2018-12-24T10:40:45.659Z,18.3
2018-12-24T10:41:45.655Z,18.3
2018-12-24T10:42:45.690Z,21.3
2018-12-24T10:43:45.837Z,15.4
2018-12-24T10:44:45.675Z,6.6
2018-12-24T10:45:45.670Z,15.4
2018-12-24T10:46:45.792Z,12.4
2018-12-24T10:47:45.657Z,15.4
2018-12-24T10:48:47.798Z,12.4
2018-12-24T10:49:45.666Z,9.5
2018-12-24T10:50:45.612Z,9.5
2018-12-24T10:51:45.739Z,9.5
2018-12-24T10:52:45.809Z,9.5
2018-12-24T10:53:45.645Z,6.6
2018-12-24T10:54:45.682Z,6.6
2018-12-24T10:55:45.678Z,12.4
2018-12-24T10:56:45.904Z,9.5
2018-12-24T10:57:45.736Z,6.6
2018-12-24T10:58:45.730Z,1.8
2018-12-24T10:59:45.713Z,1.8
2018-12-24T11:00:45.728Z,3.9
2018-12-24T11:01:47.074Z,0
2018-12-24T11:02:45.748Z,0
2018-12-24T11:03:45.683Z,0
2018-12-24T11:04:45.672Z,0
2018-12-24T11:05:45.677Z,0
2018-12-24T11:06:45.633Z,9.5
2018-12-24T11:07:45.692Z,12.4
2018-12-24T11:08:45.641Z,24.3
2018-12-24T11:09:45.683Z,27.3
2018-12-24T11:10:47.861Z,33.3
2018-12-24T11:11:45.693Z,39.3
2018-12-24T11:12:45.810Z,39.3
2018-12-24T11:13:45.631Z,39.3
2018-12-24T11:15:49.402Z,27.3
2018-12-24T11:16:48.471Z,24.3
2018-12-24T11:17:51.945Z,36.3
2018-12-24T11:18:49.433Z,33.3
2018-12-24T11:19:49.723Z,36.3
2018-12-24T11:20:49.609Z,30.3
2018-12-24T11:21:48.443Z,27.3
2018-12-24T11:22:49.591Z,24.3
2018-12-24T11:23:50.674Z,24.3
2018-12-24T11:24:49.603Z,15.4
2018-12-24T11:25:48.444Z,12.4
2018-12-24T11:26:48.448Z,9.5
2018-12-24T11:27:50.140Z,6.6
2018-12-24T11:28:48.570Z,9.5
2018-12-24T11:29:50.539Z,12.4
2018-12-24T11:30:49.450Z,18.3
2018-12-24T11:31:49.917Z,18.3
2018-12-24T11:32:49.563Z,12.4
2018-12-24T11:33:52.338Z,18.3
2018-12-24T11:34:48.787Z,33.3
2018-12-24T11:35:48.531Z,27.3
2018-12-24T11:36:49.623Z,30.3
2018-12-24T11:37:48.451Z,30.3
2018-12-24T11:38:48.501Z,30.3
2018-12-24T11:39:48.458Z,30.3
2018-12-24T11:40:48.579Z,39.3
2018-12-24T11:41:48.491Z,48.3
2018-12-24T11:42:48.481Z,39.3
2018-12-24T11:43:48.436Z,33.3
2018-12-24T11:44:48.498Z,54.3
2018-12-24T11:45:48.511Z,54.3
2018-12-24T11:46:48.492Z,48.3
2018-12-24T11:47:48.522Z,45.3
2018-12-24T11:48:48.504Z,48.3
2018-12-24T11:49:48.573Z,42.3
2018-12-24T11:50:48.451Z,51.3
2018-12-24T11:51:48.555Z,45.3
2018-12-24T11:52:48.495Z,51.3
2018-12-24T11:53:48.564Z,42.3
2018-12-24T11:54:48.493Z,54.3
2018-12-24T11:55:48.494Z,45.3
2018-12-24T11:56:48.546Z,57.3
2018-12-24T11:57:49.840Z,54.3
2018-12-24T11:58:48.537Z,54.3
2018-12-24T11:59:48.620Z,81.4
2018-12-24T12:00:48.514Z,66.4
2018-12-24T12:01:48.525Z,51.3
2018-12-24T12:02:48.483Z,51.3
2018-12-24T12:03:48.464Z,57.3
2018-12-24T12:04:48.570Z,60.3
2018-12-24T12:05:48.495Z,51.3
2018-12-24T12:06:48.442Z,39.3
2018-12-24T12:07:48.463Z,36.3
2018-12-24T12:08:48.506Z,60.3
2018-12-24T12:09:48.529Z,42.3
2018-12-24T12:10:48.493Z,51.3
2018-12-24T12:11:48.564Z,66.4
2018-12-24T12:12:48.497Z,75.4
2018-12-24T12:13:48.553Z,69.4
2018-12-24T12:14:48.537Z,66.4
2018-12-24T12:15:48.498Z,66.4
2018-12-24T12:16:48.420Z,63.4
2018-12-24T12:17:48.461Z,63.4
2018-12-24T12:18:48.475Z,48.3
2018-12-24T12:19:48.553Z,51.3
2018-12-24T12:20:54.890Z,45.3
2018-12-24T12:21:48.425Z,57.3
2018-12-24T12:22:48.473Z,45.3
2018-12-24T12:23:48.436Z,51.3
2018-12-24T12:24:48.547Z,45.3
2018-12-24T12:25:48.665Z,42.3
2018-12-24T12:26:48.420Z,51.3
2018-12-24T12:27:48.540Z,36.3
2018-12-24T12:28:48.461Z,54.3
2018-12-24T12:29:48.497Z,45.3
2018-12-24T12:31:53.963Z,45.3
2018-12-24T12:32:53.949Z,45.3
2018-12-24T12:33:54.013Z,51.3
2018-12-24T12:34:54.023Z,45.3
2018-12-24T12:35:55.181Z,51.3
2018-12-24T12:36:53.936Z,57.3
2018-12-24T12:37:53.969Z,57.3
2018-12-24T12:38:53.986Z,48.3
2018-12-24T12:39:54.666Z,48.3
2018-12-24T12:40:56.973Z,42.3
2018-12-24T12:41:56.970Z,48.3
2018-12-24T12:42:54.870Z,57.3
2018-12-24T12:43:54.976Z,57.3
2018-12-24T12:44:56.253Z,60.3
2018-12-24T12:45:55.424Z,51.3
2018-12-24T12:48:00.495Z,54.3
2018-12-24T12:49:00.834Z,57.3
2018-12-24T12:50:00.661Z,63.4
2018-12-24T12:51:01.805Z,66.4
2018-12-24T12:53:05.984Z,66.4
2018-12-24T12:54:04.436Z,51.3
2018-12-24T12:55:06.381Z,48.3
2018-12-24T12:56:06.139Z,39.3
2018-12-24T12:57:06.181Z,42.3
2018-12-24T12:58:05.302Z,36.3
2018-12-24T12:59:02.821Z,57.3
2018-12-24T13:00:06.524Z,48.3
2018-12-24T13:01:04.582Z,45.3
2018-12-24T13:02:04.023Z,36.3
2018-12-24T13:03:05.442Z,36.3
2018-12-24T13:04:03.722Z,42.3
2018-12-24T13:05:04.015Z,60.3
2018-12-24T13:06:03.702Z,54.3
2018-12-24T13:07:04.954Z,60.3
2018-12-24T13:08:04.166Z,48.3
2018-12-24T13:09:02.071Z,48.3
2018-12-24T13:10:06.574Z,48.3
2018-12-24T13:11:05.264Z,60.3
2018-12-24T13:12:05.033Z,60.3
2018-12-24T13:13:04.311Z,48.3
2018-12-24T13:14:04.342Z,66.4
2018-12-24T13:15:04.175Z,48.3
2018-12-24T13:16:02.612Z,51.3
2018-12-24T13:17:04.738Z,54.3
2018-12-24T13:18:05.552Z,45.3
2018-12-24T13:19:03.122Z,51.3
2018-12-24T13:20:02.066Z,42.3
2018-12-24T13:21:03.090Z,57.3
2018-12-24T13:22:06.665Z,45.3
2018-12-24T13:23:02.010Z,33.3
2018-12-24T13:24:02.017Z,66.4
2018-12-24T13:25:02.058Z,60.3
2018-12-24T13:26:02.061Z,45.3
2018-12-24T13:27:02.100Z,48.3